Portada
METAR-TAF:

METAR-TAF

Aeroports :

Dharamsala, Índia

latitud: 32-09-54N, longitud: 76-15-48E, altitud: 770 m

Observació

L'informe es va fer fa 11 hores i 21 minuts, a les 07:00 UTC
Vent 2 kt del Sud
Temperatura 25°C
Humitat 32%
Pressió 1019 hPa
Visibilitat: 6000 m
Escasses núvols a una alçada de 3500 ft

METAR: VIGG 210700Z 17002KT 6000 FEW035 25/07 Q1019

Hora: 23:51 (18:21 UTC)

Pronòstic

L'informe es va fer fa 13 hores i 21 minuts, a les 05:00 UTC
Pronòstic vàlid del 21 a les 06 UTC al 21 a les 15 UTC
Vent 5 kt del Sud-Oest
Visibilitat: 5000 m
Escasses núvols a una alçada de 3500 ft
Núvols disperses a una alçada de 10000 ft
calitja
Evolucionant progressivament
l' 21 a les 09 UTC al 21 a les 13 UTC
Escasses núvols a una alçada de 4000 ft, Cumulonimbus.
Evolucionant progressivament
l' 21 a les 14 UTC al 21 a les 15 UTC
Vent 2 kt amb direcció variable
Visibilitat: 2000 m
boirina

TAF: VIGG 210500Z 2106/2115 23005KT 5000 HZ FEW035 SCT100 BECMG 2109/2113 FEW040CB BECMG 2114/2115 VRB02KT 2000 BR

Observacions i pronòstics meteorològics de més de 4000 aeroports (METAR i TAF).

Les estacions disponibles són els punts grocs i vermells al mapa.

Posi el ratolí al punt desitjat per veure el nom de l'estació.

Feu clic per veure les observacions i els pronòstics meteorològics.

Per canviar el mapa: feu clic els botons verds amb una creu de color negre per apropar; al botó verd amb un guió per allunyar la imatge; o en les fletxes verdes per a mapes adjacents.


METAR-TAF: